Time;durP1;ratioP1;P1;durP2;ratioP2;P2;SDS_P1;SDS_P2;PMS_P1;PMS_P2;Temp;Humidity;BMP_temperature;BMP_pressure;BME280_temperature;BME280_humidity;BME280_pressure;Samples;Min_cycle;Max_cycle;Signal;HPM_P1;HPM_P2
2021/09/01 00:00:57;;;;;;;7.47;4.70;;;18.50;61.80;;;;;;4406123;32;20066;-78
2021/09/01 00:03:24;;;;;;;11.75;5.37;;;18.50;61.60;;;;;;4380903;32;20511;-77
2021/09/01 00:05:50;;;;;;;11.48;4.82;;;18.70;57.30;;;;;;4368820;32;20165;-77
2021/09/01 00:08:16;;;;;;;9.00;5.37;;;18.70;58.10;;;;;;4407023;32;20156;-77
2021/09/01 00:10:43;;;;;;;8.93;5.10;;;18.80;55.80;;;;;;4394964;32;20108;-78
2021/09/01 00:13:09;;;;;;;9.65;4.30;;;18.90;55.60;;;;;;4369573;32;20085;-76
2021/09/01 00:15:35;;;;;;;6.97;4.55;;;19.00;53.90;;;;;;4395041;32;20081;-77
2021/09/01 00:18:02;;;;;;;8.02;4.75;;;19.10;52.80;;;;;;4394316;32;20153;-77
2021/09/01 00:20:28;;;;;;;7.45;5.00;;;19.10;51.80;;;;;;4406180;32;20121;-77
2021/09/01 00:22:54;;;;;;;12.00;5.85;;;19.10;52.00;;;;;;4381265;32;20080;-77
2021/09/01 00:25:21;;;;;;;12.05;5.90;;;19.60;46.60;;;;;;4381314;32;20089;-76
2021/09/01 00:27:47;;;;;;;12.50;7.15;;;19.70;45.30;;;;;;4380928;32;20081;-77
2021/09/01 00:30:13;;;;;;;11.23;7.00;;;19.90;42.80;;;;;;4381716;32;20073;-77
2021/09/01 00:32:40;;;;;;;8.52;6.10;;;20.00;41.10;;;;;;4406034;32;20069;-77
2021/09/01 00:35:07;;;;;;;10.63;6.93;;;20.10;39.80;;;;;;4406919;32;20089;-76
2021/09/01 00:37:33;;;;;;;9.35;6.55;;;20.20;38.40;;;;;;4368959;32;20080;-77
2021/09/01 00:39:59;;;;;;;10.75;7.40;;;20.20;37.90;;;;;;4380646;32;20105;-77
2021/09/01 00:42:25;;;;;;;14.45;8.15;;;20.20;37.30;;;;;;4393479;32;20092;-77
2021/09/01 00:44:51;;;;;;;12.23;8.55;;;20.40;36.00;;;;;;4393020;32;20148;-77
2021/09/01 00:47:24;;;;;;;14.63;9.18;;;20.40;35.70;;;;;;4406178;32;20476;-77
2021/09/01 00:49:51;;;;;;;13.02;9.88;;;20.40;35.40;;;;;;4380785;32;20514;-76
2021/09/01 00:52:18;;;;;;;15.63;10.70;;;20.40;34.90;;;;;;4368759;32;20073;-76
2021/09/01 00:54:44;;;;;;;15.43;10.80;;;20.40;34.60;;;;;;4393174;32;20100;-76
2021/09/01 00:57:10;;;;;;;16.48;10.65;;;20.40;34.70;;;;;;4380421;32;20515;-77
2021/09/01 00:59:41;;;;;;;16.48;10.82;;;20.40;34.30;;;;;;4393018;32;20172;-77
2021/09/01 01:02:07;;;;;;;17.08;11.00;;;20.40;34.50;;;;;;4405737;32;20073;-77
2021/09/01 01:04:36;;;;;;;18.52;11.85;;;20.40;34.30;;;;;;4405533;32;20529;-76
2021/09/01 01:07:10;;;;;;;12.48;10.38;;;20.30;34.40;;;;;;4368105;32;20061;-76
2021/09/01 01:09:37;;;;;;;19.02;10.90;;;20.30;34.30;;;;;;4368159;32;20178;-77
2021/09/01 01:12:11;;;;;;;19.15;11.07;;;20.30;34.40;;;;;;4356237;32;20084;-76
2021/09/01 01:14:43;;;;;;;16.27;11.05;;;20.30;34.40;;;;;;4393299;32;20072;-77
2021/09/01 01:17:15;;;;;;;19.12;11.38;;;20.20;34.70;;;;;;4369081;32;20263;-77
2021/09/01 01:19:42;;;;;;;14.07;10.38;;;20.30;34.30;;;;;;4380734;32;20115;-77
2021/09/01 01:22:10;;;;;;;14.55;10.75;;;20.30;34.20;;;;;;4368347;32;20081;-77
2021/09/01 01:25:05;;;;;;;16.80;10.73;;;20.30;33.90;;;;;;4368419;32;20124;-77
2021/09/01 01:27:39;;;;;;;14.95;10.57;;;20.30;33.80;;;;;;4381633;32;20070;-77
2021/09/01 01:30:18;;;;;;;17.08;11.15;;;20.20;33.80;;;;;;4368806;32;20076;-76
2021/09/01 01:32:50;;;;;;;14.60;10.65;;;20.30;33.50;;;;;;4368484;32;20066;-76
2021/09/01 01:35:30;;;;;;;17.40;10.95;;;20.20;33.70;;;;;;4368402;32;20081;-77
2021/09/01 01:37:59;;;;;;;15.73;10.88;;;20.10;34.10;;;;;;4393046;32;20054;-76
2021/09/01 01:40:25;;;;;;;16.98;10.90;;;20.10;34.50;;;;;;4380491;32;20085;-77
2021/09/01 01:42:55;;;;;;;16.60;10.43;;;20.00;34.60;;;;;;4405629;32;20088;-77
2021/09/01 01:45:29;;;;;;;18.12;10.80;;;20.10;34.40;;;;;;4369075;32;20080;-77
2021/09/01 01:47:56;;;;;;;15.10;11.50;;;19.90;34.80;;;;;;4357190;32;20076;-76
2021/09/01 01:50:22;;;;;;;18.98;12.02;;;19.80;35.00;;;;;;4394006;32;20089;-77
2021/09/01 01:52:48;;;;;;;18.98;11.98;;;19.90;34.50;;;;;;4383062;32;20074;-77
2021/09/01 01:55:14;;;;;;;26.02;13.23;;;20.00;34.00;;;;;;4383048;32;20079;-77
2021/09/01 01:57:41;;;;;;;19.17;12.32;;;19.80;34.30;;;;;;4383180;32;20055;-77
2021/09/01 02:00:08;;;;;;;16.52;11.52;;;19.70;34.60;;;;;;4382991;32;20142;-78
2021/09/01 02:02:34;;;;;;;14.52;10.85;;;19.40;36.10;;;;;;4383185;32;20174;-78
2021/09/01 02:05:01;;;;;;;17.70;11.40;;;19.20;37.10;;;;;;4382199;32;20498;-77
2021/09/01 02:07:27;;;;;;;18.62;11.23;;;19.10;37.80;;;;;;4370116;32;20441;-77
2021/09/01 02:09:54;;;;;;;17.92;11.27;;;18.80;39.10;;;;;;4395920;32;20094;-77
2021/09/01 02:12:20;;;;;;;17.62;10.75;;;18.70;39.80;;;;;;4395368;32;20089;-76
2021/09/01 02:14:47;;;;;;;15.48;11.07;;;18.70;39.60;;;;;;4407816;32;20083;-76
2021/09/01 02:17:13;;;;;;;16.45;12.20;;;18.70;39.00;;;;;;4370605;32;20082;-77
2021/09/01 02:19:39;;;;;;;23.73;13.27;;;18.80;38.40;;;;;;4410830;32;20062;-77
2021/09/01 02:22:06;;;;;;;19.85;12.45;;;18.90;39.00;;;;;;4395722;32;20180;-76
2021/09/01 02:24:32;;;;;;;16.37;11.30;;;19.00;38.10;;;;;;4357858;32;20081;-77
2021/09/01 02:27:00;;;;;;;17.15;13.20;;;19.20;37.30;;;;;;4395141;32;20463;-76
2021/09/01 02:29:26;;;;;;;20.95;12.48;;;19.30;37.40;;;;;;4407656;32;20077;-76
2021/09/01 02:31:53;;;;;;;19.27;12.15;;;19.40;37.20;;;;;;4407371;32;20519;-76
2021/09/01 02:34:19;;;;;;;16.92;11.30;;;19.40;37.50;;;;;;4407502;32;20069;-76
2021/09/01 02:36:45;;;;;;;18.35;11.23;;;19.60;36.60;;;;;;4382201;32;20437;-77
2021/09/01 02:39:11;;;;;;;17.20;11.00;;;19.60;36.60;;;;;;4407745;32;20077;-77
2021/09/01 02:41:38;;;;;;;14.98;10.07;;;19.80;36.50;;;;;;4382239;32;20085;-77
2021/09/01 02:44:04;;;;;;;15.38;10.60;;;19.90;36.60;;;;;;4394724;32;20535;-77
2021/09/01 02:46:30;;;;;;;15.45;9.98;;;20.00;36.70;;;;;;4382574;32;20109;-76
2021/09/01 02:48:56;;;;;;;15.00;10.15;;;20.00;36.90;;;;;;4382320;32;20078;-77
2021/09/01 02:51:23;;;;;;;12.25;9.75;;;20.00;37.30;;;;;;4382144;32;20249;-77
2021/09/01 02:53:49;;;;;;;13.82;9.88;;;20.00;37.30;;;;;;4382361;32;20446;-76
2021/09/01 02:56:15;;;;;;;13.13;9.38;;;20.00;37.40;;;;;;4395163;32;20085;-77
2021/09/01 02:58:41;;;;;;;13.93;10.27;;;20.00;37.40;;;;;;4407106;32;20061;-77
2021/09/01 03:01:08;;;;;;;14.43;9.70;;;20.10;37.20;;;;;;4382146;32;20081;-77
2021/09/01 03:03:34;;;;;;;13.60;9.65;;;20.20;36.90;;;;;;4394138;32;20101;-77
2021/09/01 03:06:00;;;;;;;11.07;8.32;;;20.30;36.00;;;;;;4407357;32;20081;-77
2021/09/01 03:08:26;;;;;;;12.95;9.10;;;20.40;35.50;;;;;;4381987;32;20154;-77
2021/09/01 03:10:52;;;;;;;13.27;7.80;;;20.40;35.10;;;;;;4381687;32;20081;-76
2021/09/01 03:13:18;;;;;;;12.23;8.38;;;20.50;34.10;;;;;;4394819;32;20495;-78
2021/09/01 03:15:45;;;;;;;11.75;8.35;;;20.60;33.30;;;;;;4369725;32;20480;-78
2021/09/01 03:18:11;;;;;;;12.80;8.05;;;20.70;33.00;;;;;;4394526;32;20104;-77
2021/09/01 03:20:37;;;;;;;14.15;8.38;;;20.80;32.50;;;;;;4394488;32;20077;-77
2021/09/01 03:23:04;;;;;;;15.23;8.05;;;20.70;32.40;;;;;;4394272;32;20069;-76
2021/09/01 03:25:30;;;;;;;16.42;8.80;;;20.80;31.70;;;;;;4406681;32;20097;-77
2021/09/01 03:27:59;;;;;;;14.57;8.60;;;20.90;31.50;;;;;;4394128;32;20411;-78
2021/09/01 03:30:26;;;;;;;14.95;10.70;;;20.90;31.40;;;;;;4382184;32;20078;-77
2021/09/01 03:32:52;;;;;;;14.55;11.68;;;20.90;31.30;;;;;;4381832;32;20079;-76
2021/09/01 03:35:19;;;;;;;15.38;12.50;;;21.00;31.00;;;;;;4382016;32;20155;-77
2021/09/01 03:37:45;;;;;;;16.95;13.02;;;20.90;30.90;;;;;;4394356;32;20081;-77
2021/09/01 03:40:11;;;;;;;22.35;15.82;;;21.00;30.60;;;;;;4408074;32;20073;-77
2021/09/01 03:42:40;;;;;;;22.65;18.05;;;20.90;30.60;;;;;;4369279;32;20074;-77
2021/09/01 03:45:07;;;;;;;20.40;17.30;;;21.00;30.60;;;;;;4406517;32;20073;-77
2021/09/01 03:47:33;;;;;;;21.20;18.37;;;21.00;30.60;;;;;;4369374;32;20200;-77
2021/09/01 03:50:01;;;;;;;25.50;19.52;;;20.90;30.60;;;;;;4369058;32;20150;-77
2021/09/01 03:52:27;;;;;;;21.95;18.52;;;21.00;30.10;;;;;;4381392;32;20085;-77
2021/09/01 03:54:53;;;;;;;24.77;21.20;;;21.00;30.40;;;;;;4406212;32;20077;-77
2021/09/01 03:57:19;;;;;;;23.48;20.33;;;21.00;30.20;;;;;;4393531;32;20248;-77
2021/09/01 03:59:45;;;;;;;23.73;21.23;;;21.10;30.00;;;;;;4406057;32;20093;-77
2021/09/01 04:02:11;;;;;;;22.95;20.45;;;21.20;30.00;;;;;;4381439;32;20504;-77
2021/09/01 04:04:38;;;;;;;20.25;17.55;;;21.20;31.40;;;;;;4393611;32;20161;-77
2021/09/01 04:07:04;;;;;;;22.65;17.58;;;21.20;30.50;;;;;;4381616;32;20136;-77
2021/09/01 04:09:31;;;;;;;19.23;15.43;;;21.20;30.90;;;;;;4368966;32;20488;-78
2021/09/01 04:11:57;;;;;;;18.25;13.75;;;21.30;31.20;;;;;;4381124;32;20095;-76
2021/09/01 04:14:24;;;;;;;17.83;13.40;;;21.30;30.90;;;;;;4405519;32;20076;-76
2021/09/01 04:16:50;;;;;;;14.87;12.00;;;21.30;30.50;;;;;;4380882;32;20081;-77
2021/09/01 04:19:16;;;;;;;14.68;12.48;;;21.40;30.30;;;;;;4393837;32;20096;-77
2021/09/01 04:21:43;;;;;;;14.18;10.48;;;21.40;30.00;;;;;;4380949;32;20092;-77
2021/09/01 04:24:09;;;;;;;13.62;11.10;;;21.50;29.60;;;;;;4368454;32;20073;-76
2021/09/01 04:26:35;;;;;;;13.55;10.32;;;21.60;29.30;;;;;;4380809;32;20076;-77
2021/09/01 04:29:01;;;;;;;12.82;9.82;;;21.60;28.90;;;;;;4405977;32;20076;-77
2021/09/01 04:31:27;;;;;;;12.75;10.20;;;21.60;28.90;;;;;;4393336;32;20070;-76
2021/09/01 04:33:54;;;;;;;12.80;10.13;;;21.80;28.60;;;;;;4380685;32;20157;-76
2021/09/01 04:36:20;;;;;;;13.38;9.25;;;21.80;28.60;;;;;;4406003;32;20085;-77
2021/09/01 04:38:46;;;;;;;15.27;9.70;;;21.90;28.60;;;;;;4368148;32;20097;-77
2021/09/01 04:41:12;;;;;;;12.77;10.48;;;22.00;28.30;;;;;;4393036;32;20447;-78
2021/09/01 04:43:39;;;;;;;14.27;10.38;;;22.00;28.30;;;;;;4367949;32;20144;-76
2021/09/01 04:46:05;;;;;;;12.65;10.70;;;22.00;28.60;;;;;;4393597;32;20152;-78
2021/09/01 04:48:31;;;;;;;13.23;10.00;;;22.10;28.60;;;;;;4380390;32;20081;-77
2021/09/01 04:50:57;;;;;;;13.30;10.57;;;22.20;28.60;;;;;;4380916;32;20074;-77
2021/09/01 04:53:23;;;;;;;15.98;10.65;;;22.50;28.50;;;;;;4393054;32;20065;-77
2021/09/01 04:55:49;;;;;;;12.60;10.05;;;24.50;26.20;;;;;;4405349;32;20736;-77
2021/09/01 04:58:16;;;;;;;12.18;9.60;;;25.10;24.90;;;;;;4393004;32;20085;-77
2021/09/01 05:00:42;;;;;;;15.65;10.15;;;25.60;24.30;;;;;;4380624;32;20092;-77
2021/09/01 05:03:08;;;;;;;14.82;9.23;;;26.30;23.70;;;;;;4393088;32;20078;-77
2021/09/01 05:05:34;;;;;;;11.88;8.80;;;26.10;24.10;;;;;;4393593;32;20574;-77
2021/09/01 05:08:01;;;;;;;10.13;7.93;;;26.20;23.50;;;;;;4367947;32;20085;-77
2021/09/01 05:10:27;;;;;;;13.25;8.20;;;26.30;22.40;;;;;;4380556;32;20081;-76
2021/09/01 05:12:53;;;;;;;11.73;8.52;;;26.80;22.20;;;;;;4405353;32;20081;-77
2021/09/01 05:15:20;;;;;;;10.45;7.60;;;26.60;21.90;;;;;;4405688;32;20101;-76
2021/09/01 05:17:46;;;;;;;13.90;7.85;;;27.20;21.60;;;;;;4380327;32;20471;-77
2021/09/01 05:20:14;;;;;;;10.85;6.57;;;28.10;20.80;;;;;;4393914;32;20241;-77
2021/09/01 05:22:43;;;;;;;11.60;6.55;;;27.30;20.90;;;;;;4393629;32;20500;-77
2021/09/01 05:25:12;;;;;;;11.12;5.90;;;27.60;20.70;;;;;;4368741;32;20081;-77
2021/09/01 05:27:41;;;;;;;8.02;5.20;;;27.60;20.50;;;;;;4371622;32;20066;-76
2021/09/01 05:30:12;;;;;;;12.65;6.40;;;27.40;20.30;;;;;;4371998;32;20081;-77
2021/09/01 05:32:40;;;;;;;8.55;5.37;;;28.40;19.40;;;;;;4371821;32;20153;-76
2021/09/01 05:35:07;;;;;;;6.85;4.87;;;28.60;18.70;;;;;;4395868;32;20074;-76
2021/09/01 05:37:34;;;;;;;7.75;5.43;;;27.80;18.80;;;;;;4383472;32;20172;-77
2021/09/01 05:40:01;;;;;;;10.10;4.80;;;28.70;17.70;;;;;;4383375;32;20168;-77
2021/09/01 05:42:29;;;;;;;8.38;4.75;;;28.90;16.50;;;;;;4383148;32;20527;-77
2021/09/01 05:44:56;;;;;;;10.05;4.82;;;27.80;17.50;;;;;;4395866;32;20170;-77
2021/09/01 05:47:23;;;;;;;8.35;4.65;;;27.40;17.90;;;;;;4383353;32;20074;-76
2021/09/01 05:49:50;;;;;;;9.55;4.50;;;28.20;17.00;;;;;;4370559;32;20108;-76
2021/09/01 05:52:17;;;;;;;7.87;4.90;;;27.40;17.30;;;;;;4371399;32;20085;-76
2021/09/01 05:54:46;;;;;;;8.93;4.45;;;27.10;18.00;;;;;;4395875;32;20556;-76
2021/09/01 05:57:15;;;;;;;6.00;3.80;;;27.70;17.40;;;;;;4383317;32;20064;-77
2021/09/01 05:59:48;;;;;;;9.10;4.78;;;27.80;17.50;;;;;;4383165;32;20081;-76
2021/09/01 06:02:46;;;;;;;6.45;4.85;;;28.40;17.20;;;;;;4407627;32;20584;-77
2021/09/01 06:05:13;;;;;;;9.48;4.87;;;29.20;16.40;;;;;;4401355;32;20102;-77
2021/09/01 06:07:57;;;;;;;8.75;4.35;;;29.20;16.30;;;;;;4383204;32;20073;-77
2021/09/01 06:10:32;;;;;;;7.55;4.90;;;29.00;15.90;;;;;;4371559;32;20165;-76
2021/09/01 06:13:04;;;;;;;8.73;5.10;;;28.30;16.60;;;;;;4395329;32;20088;-77
2021/09/01 06:15:31;;;;;;;7.47;4.10;;;27.90;16.90;;;;;;4395359;32;20089;-77
2021/09/01 06:17:59;;;;;;;9.77;3.97;;;27.70;16.90;;;;;;4370372;32;20173;-77
2021/09/01 06:20:29;;;;;;;7.82;4.72;;;26.80;17.90;;;;;;4371228;32;20145;-77
2021/09/01 06:22:56;;;;;;;7.05;4.37;;;26.60;18.80;;;;;;4407991;32;20073;-77
2021/09/01 06:25:22;;;;;;;6.90;4.20;;;26.90;18.80;;;;;;4383049;32;20069;-76
2021/09/01 06:27:48;;;;;;;9.30;4.85;;;26.40;18.60;;;;;;4394854;32;20164;-77
2021/09/01 06:30:14;;;;;;;6.97;4.43;;;26.10;19.10;;;;;;4369838;32;20070;-76
2021/09/01 06:32:41;;;;;;;7.47;4.80;;;26.50;19.20;;;;;;4394708;32;20479;-76
2021/09/01 06:35:08;;;;;;;6.65;4.12;;;26.50;18.60;;;;;;4369942;32;20066;-76
2021/09/01 06:37:39;;;;;;;11.07;4.90;;;26.40;18.70;;;;;;4394719;32;20164;-76
2021/09/01 06:40:07;;;;;;;9.52;5.72;;;26.30;18.70;;;;;;4371247;32;20065;-76
2021/09/01 06:42:33;;;;;;;8.63;5.35;;;26.20;18.50;;;;;;4370400;32;20204;-77
2021/09/01 06:44:59;;;;;;;6.80;5.10;;;26.40;19.00;;;;;;4382736;32;20169;-77
2021/09/01 06:47:26;;;;;;;8.77;6.18;;;26.40;18.80;;;;;;4382942;32;20088;-76
2021/09/01 06:49:52;;;;;;;9.32;7.10;;;26.60;18.70;;;;;;4394742;32;20138;-76
2021/09/01 06:52:18;;;;;;;11.88;8.38;;;26.60;18.40;;;;;;4394881;32;20490;-76
2021/09/01 06:54:44;;;;;;;14.55;10.95;;;26.60;18.50;;;;;;4394892;32;20084;-76
2021/09/01 06:57:11;;;;;;;13.05;11.35;;;26.30;18.90;;;;;;4407125;32;20527;-76
2021/09/01 06:59:37;;;;;;;13.68;11.73;;;26.30;19.30;;;;;;4407652;32;20103;-76
2021/09/01 07:02:03;;;;;;;17.02;12.63;;;26.60;19.10;;;;;;4382405;32;20089;-76
2021/09/01 07:04:29;;;;;;;14.65;12.37;;;26.70;19.00;;;;;;4383825;32;20090;-76
2021/09/01 07:06:56;;;;;;;12.73;11.43;;;26.90;18.90;;;;;;4373094;32;20066;-76
2021/09/01 07:09:22;;;;;;;12.20;10.80;;;26.80;18.70;;;;;;4386657;32;20086;-77
2021/09/01 07:11:48;;;;;;;9.80;8.07;;;26.80;18.80;;;;;;4412643;32;20065;-76
2021/09/01 07:14:14;;;;;;;10.38;8.52;;;26.70;18.80;;;;;;4399267;32;20134;-76
2021/09/01 07:16:40;;;;;;;11.43;8.02;;;27.00;18.80;;;;;;4369797;32;20097;-76
2021/09/01 07:19:06;;;;;;;11.27;7.70;;;27.00;18.80;;;;;;4382827;32;20076;-78
2021/09/01 07:21:33;;;;;;;11.07;7.28;;;27.10;18.50;;;;;;4382887;32;20089;-77
2021/09/01 07:24:00;;;;;;;9.00;7.05;;;26.90;19.10;;;;;;4394422;32;20104;-77
2021/09/01 07:26:26;;;;;;;9.13;6.37;;;27.10;19.10;;;;;;4381887;32;20172;-76
2021/09/01 07:28:53;;;;;;;8.98;6.72;;;27.00;18.90;;;;;;4381671;32;20185;-76
2021/09/01 07:31:19;;;;;;;10.90;6.40;;;27.20;19.10;;;;;;4381898;32;20080;-76
2021/09/01 07:33:45;;;;;;;11.02;6.95;;;27.40;18.60;;;;;;4394304;32;20147;-76
2021/09/01 07:36:11;;;;;;;12.43;6.57;;;27.50;18.90;;;;;;4406495;32;20507;-76
2021/09/01 07:38:38;;;;;;;12.02;6.95;;;27.60;18.40;;;;;;4408064;32;20100;-76
2021/09/01 07:41:04;;;;;;;11.38;7.18;;;27.20;18.90;;;;;;4381780;32;20429;-76
2021/09/01 07:43:30;;;;;;;9.93;6.78;;;27.00;19.00;;;;;;4406593;32;20100;-77
2021/09/01 07:45:56;;;;;;;10.60;6.90;;;27.40;19.00;;;;;;4381685;32;20085;-76
2021/09/01 07:48:23;;;;;;;11.95;7.22;;;27.80;19.00;;;;;;4393093;32;20070;-76
2021/09/01 07:50:51;;;;;;;13.43;7.37;;;27.60;19.10;;;;;;4381428;32;20069;-76
2021/09/01 07:53:17;;;;;;;10.60;7.35;;;27.80;19.10;;;;;;4406621;32;20219;-76
2021/09/01 07:55:43;;;;;;;10.40;6.80;;;27.50;19.00;;;;;;4394020;32;20089;-77
2021/09/01 07:58:11;;;;;;;11.27;6.20;;;27.40;18.70;;;;;;4406502;32;20076;-76
2021/09/01 08:00:44;;;;;;;9.18;5.78;;;27.20;18.50;;;;;;4376072;32;20100;-74
2021/09/01 08:03:13;;;;;;;8.18;5.35;;;27.40;18.60;;;;;;4360475;32;20150;-77
2021/09/01 08:05:39;;;;;;;7.82;4.37;;;27.30;18.50;;;;;;4378615;32;20182;-76
2021/09/01 08:08:06;;;;;;;6.65;4.45;;;27.60;18.60;;;;;;4370547;32;20086;-77
2021/09/01 08:10:32;;;;;;;6.40;4.35;;;27.80;18.40;;;;;;4395959;32;20536;-77
2021/09/01 08:12:58;;;;;;;7.40;3.97;;;27.80;18.20;;;;;;4375358;32;20081;-74
2021/09/01 08:15:25;;;;;;;6.68;3.72;;;27.90;18.20;;;;;;4397333;32;20073;-80
2021/09/01 08:17:51;;;;;;;7.62;3.75;;;27.90;17.90;;;;;;4369272;32;20239;-74
2021/09/01 08:20:17;;;;;;;6.87;4.22;;;27.70;18.10;;;;;;4389281;32;20500;-75
2021/09/01 08:22:44;;;;;;;9.82;3.97;;;28.00;18.00;;;;;;4361174;32;20064;-79
2021/09/01 08:25:11;;;;;;;8.68;4.15;;;27.40;18.20;;;;;;4371703;32;20166;-74
2021/09/01 08:27:38;;;;;;;7.65;3.87;;;27.40;18.20;;;;;;4372596;32;20549;-72
2021/09/01 08:30:06;;;;;;;7.20;4.37;;;27.50;18.20;;;;;;4371338;32;20085;-76
2021/09/01 08:32:32;;;;;;;8.77;4.55;;;27.60;18.20;;;;;;4377705;32;20120;-78
2021/09/01 08:34:58;;;;;;;8.30;4.10;;;27.30;18.20;;;;;;4359943;32;20070;-73
2021/09/01 08:37:25;;;;;;;8.75;4.18;;;27.60;18.30;;;;;;4401312;32;20082;-73
2021/09/01 08:39:51;;;;;;;6.85;3.85;;;27.50;18.70;;;;;;4392864;32;20149;-74
2021/09/01 08:42:18;;;;;;;9.93;4.20;;;27.90;18.50;;;;;;4396700;32;20088;-76
2021/09/01 08:44:45;;;;;;;6.47;3.80;;;28.60;18.00;;;;;;4369398;32;20059;-79
2021/09/01 08:47:12;;;;;;;9.05;4.22;;;28.60;17.80;;;;;;4370295;32;20541;-75
2021/09/01 08:49:39;;;;;;;8.95;4.45;;;28.30;16.90;;;;;;4386676;32;20077;-78
2021/09/01 08:52:05;;;;;;;7.45;4.20;;;28.70;17.00;;;;;;4369199;32;20480;-75
2021/09/01 08:54:33;;;;;;;7.18;4.00;;;29.10;16.60;;;;;;4392022;32;20112;-75
2021/09/01 08:56:59;;;;;;;6.28;4.07;;;28.70;17.00;;;;;;4366061;32;20515;-74
2021/09/01 08:59:26;;;;;;;9.20;4.03;;;29.00;17.30;;;;;;4366608;32;20092;-76
2021/09/01 09:01:54;;;;;;;9.43;4.37;;;29.10;17.10;;;;;;4380762;32;20088;-72
2021/09/01 09:04:29;;;;;;;12.43;4.90;;;29.10;17.10;;;;;;4370964;32;20090;-77
2021/09/01 09:07:04;;;;;;;8.82;4.68;;;28.80;16.10;;;;;;4378254;32;20654;-74
2021/09/01 09:09:35;;;;;;;8.20;4.85;;;28.70;16.30;;;;;;4390636;32;20064;-75
2021/09/01 09:12:03;;;;;;;7.43;4.12;;;28.50;16.70;;;;;;4379306;32;20088;-74
2021/09/01 09:14:34;;;;;;;7.60;4.20;;;29.10;16.70;;;;;;4354446;32;20544;-71
2021/09/01 09:17:14;;;;;;;7.62;4.10;;;28.70;16.80;;;;;;4391403;32;20100;-69
2021/09/01 09:20:00;;;;;;;7.45;4.10;;;28.70;16.90;;;;;;4377125;32;20112;-69
2021/09/01 09:22:32;;;;;;;10.13;5.00;;;28.90;16.60;;;;;;4388661;32;20492;-68
2021/09/01 09:25:03;;;;;;;9.85;5.50;;;29.30;16.80;;;;;;4377977;32;20456;-64
2021/09/01 09:27:45;;;;;;;11.95;6.18;;;28.70;17.60;;;;;;4373945;32;20070;-62
2021/09/01 09:30:25;;;;;;;7.57;5.32;;;28.50;18.60;;;;;;4386798;32;20110;-73
2021/09/01 09:33:15;;;;;;;8.98;6.22;;;28.50;18.40;;;;;;4388078;32;20138;-70
2021/09/01 09:35:59;;;;;;;9.93;6.32;;;28.70;18.20;;;;;;4384961;32;20492;-66
2021/09/01 09:38:37;;;;;;;8.10;5.87;;;28.70;17.60;;;;;;4388863;32;20480;-72
2021/09/01 09:41:07;;;;;;;10.27;6.53;;;28.70;17.50;;;;;;4388865;32;20190;-66
2021/09/01 09:43:35;;;;;;;8.10;6.47;;;28.70;17.60;;;;;;4374342;32;20172;-68
2021/09/01 09:46:08;;;;;;;11.95;6.55;;;28.90;17.60;;;;;;4393758;32;20221;-68
2021/09/01 09:48:36;;;;;;;11.85;7.43;;;28.80;17.20;;;;;;4394570;32;20169;-68
2021/09/01 09:51:04;;;;;;;13.20;7.65;;;28.80;16.90;;;;;;4380912;32;20176;-71
2021/09/01 09:53:50;;;;;;;11.10;7.78;;;29.10;16.80;;;;;;4371767;32;20105;-73
2021/09/01 09:56:25;;;;;;;13.27;8.60;;;29.30;16.50;;;;;;4375898;32;20174;-73
2021/09/01 09:58:57;;;;;;;13.10;8.65;;;29.50;16.50;;;;;;4387118;32;20146;-74
2021/09/01 10:01:33;;;;;;;13.38;9.95;;;29.20;17.70;;;;;;4358960;32;20171;-74
2021/09/01 10:03:59;;;;;;;;;;;29.20;16.70;;;;;;4380634;32;20149;-73
2021/09/01 10:06:26;;;;;;;12.48;10.05;;;29.10;17.00;;;;;;4377905;32;19968;-72
2021/09/01 10:08:55;;;;;;;12.37;9.10;;;29.20;16.90;;;;;;4377122;32;20137;-69
2021/09/01 10:11:22;;;;;;;14.98;8.73;;;29.00;17.10;;;;;;4390036;32;20078;-73
2021/09/01 10:13:52;;;;;;;12.55;8.00;;;29.00;16.90;;;;;;4381532;32;20076;-69
2021/09/01 10:16:25;;;;;;;16.70;8.05;;;29.00;16.80;;;;;;4389263;32;20189;-69
2021/09/01 10:19:14;;;;;;;14.77;8.10;;;29.00;16.90;;;;;;4391131;32;20142;-71
2021/09/01 10:21:46;;;;;;;9.90;7.50;;;29.10;16.90;;;;;;4382255;32;20226;-65
2021/09/01 10:24:38;;;;;;;12.13;7.32;;;29.20;16.70;;;;;;4387794;32;20168;-67
2021/09/01 10:27:25;;;;;;;10.60;7.00;;;29.10;16.70;;;;;;4363872;32;20582;-67
2021/09/01 10:30:06;;;;;;;11.00;7.35;;;29.00;16.40;;;;;;4393998;32;20173;-64
2021/09/01 10:32:44;;;;;;;11.20;7.37;;;29.70;16.60;;;;;;4379913;32;20160;-67
2021/09/01 10:37:42;;;;;;;22.73;13.25;;;29.00;16.60;;;;;;4390860;32;20086;-66
2021/09/01 10:40:31;;;;;;;21.27;14.15;;;29.30;16.40;;;;;;4377319;32;20161;-65
2021/09/01 10:42:58;;;;;;;17.73;13.07;;;29.40;16.50;;;;;;4371108;32;20512;-63
2021/09/01 10:45:44;;;;;;;20.23;13.52;;;29.30;16.80;;;;;;4379443;32;20169;-63
2021/09/01 10:48:11;;;;;;;;;;;29.20;16.90;;;;;;4403444;32;20134;-71
2021/09/01 10:50:51;;;;;;;16.00;12.25;;;29.10;17.40;;;;;;4390718;32;20000;-70
2021/09/01 10:53:29;;;;;;;13.35;9.25;;;29.40;17.50;;;;;;4366896;32;20070;-70
2021/09/01 10:55:59;;;;;;;17.17;9.85;;;29.40;17.10;;;;;;4384932;32;20160;-70
2021/09/01 10:58:33;;;;;;;15.85;11.50;;;29.20;17.40;;;;;;4390791;32;20600;-69
2021/09/01 11:01:18;;;;;;;20.75;11.93;;;29.20;17.20;;;;;;4378820;32;20595;-70
2021/09/01 11:04:04;;;;;;;15.00;9.85;;;29.70;16.80;;;;;;4354866;32;20199;-69
2021/09/01 11:06:35;;;;;;;13.50;8.77;;;29.60;16.40;;;;;;4373685;32;20077;-68
2021/09/01 11:09:11;;;;;;;13.30;7.12;;;30.00;16.10;;;;;;4368221;32;20057;-69
2021/09/01 11:11:46;;;;;;;16.42;7.47;;;29.50;16.00;;;;;;4392908;32;20265;-73
2021/09/01 11:14:38;;;;;;;11.68;6.22;;;29.60;15.80;;;;;;4393904;32;20089;-71
2021/09/01 11:17:09;;;;;;;11.93;5.93;;;30.00;15.40;;;;;;4390408;32;20141;-67
2021/09/01 11:19:37;;;;;;;10.70;6.32;;;30.20;14.90;;;;;;4393698;32;20074;-66
2021/09/01 11:22:06;;;;;;;12.37;7.03;;;29.90;15.60;;;;;;4383042;32;20128;-67
2021/09/01 11:24:52;;;;;;;14.85;8.15;;;29.90;15.40;;;;;;4375502;32;20128;-68
2021/09/01 11:27:24;;;;;;;11.50;7.67;;;29.70;16.00;;;;;;4384479;32;20189;-66
2021/09/01 11:29:50;;;;;;;14.02;7.90;;;29.50;16.10;;;;;;4387854;32;20096;-67
2021/09/01 11:32:20;;;;;;;14.50;7.07;;;29.50;16.40;;;;;;4384704;32;20090;-66
2021/09/01 11:34:47;;;;;;;16.55;6.53;;;29.30;16.90;;;;;;4380207;32;21471;-71
2021/09/01 11:37:15;;;;;;;14.23;7.45;;;29.10;16.90;;;;;;4384483;32;20073;-64
2021/09/01 11:39:44;;;;;;;12.68;6.62;;;29.10;17.00;;;;;;4368319;32;20077;-66
2021/09/01 11:42:10;;;;;;;15.13;5.70;;;29.00;17.10;;;;;;4380616;32;20145;-65
2021/09/01 11:44:37;;;;;;;15.23;6.57;;;28.90;17.00;;;;;;4379178;32;20436;-67
2021/09/01 11:47:13;;;;;;;14.50;6.47;;;29.00;17.40;;;;;;4389729;32;20083;-63
2021/09/01 11:49:39;;;;;;;15.23;7.05;;;28.90;17.50;;;;;;4384883;32;20098;-68
2021/09/01 11:52:06;;;;;;;11.98;6.75;;;28.90;18.00;;;;;;4389950;32;20074;-69
2021/09/01 11:54:32;;;;;;;14.73;7.20;;;28.60;18.00;;;;;;4380660;32;20524;-64
2021/09/01 11:56:58;;;;;;;15.10;7.32;;;28.60;18.10;;;;;;4364663;32;20100;-66
2021/09/01 11:59:26;;;;;;;16.00;7.68;;;28.50;18.60;;;;;;4387996;32;20064;-64
2021/09/01 12:01:59;;;;;;;14.10;7.43;;;28.40;18.70;;;;;;4391709;32;20073;-66
2021/09/01 12:04:25;;;;;;;15.90;8.05;;;28.40;19.20;;;;;;4382869;32;20085;-68
2021/09/01 12:06:56;;;;;;;14.18;7.68;;;28.30;19.40;;;;;;4382287;32;20515;-69
2021/09/01 12:09:27;;;;;;;15.07;7.53;;;28.20;19.70;;;;;;4384190;32;20086;-70
2021/09/01 12:11:55;;;;;;;16.17;7.75;;;28.10;19.90;;;;;;4395249;32;20061;-66
2021/09/01 12:14:24;;;;;;;12.37;7.53;;;28.10;20.10;;;;;;4388947;32;20070;-65
2021/09/01 12:16:55;;;;;;;19.48;8.60;;;28.10;20.40;;;;;;4372193;32;20061;-63
2021/09/01 12:19:21;;;;;;;18.92;7.80;;;28.10;20.20;;;;;;4374428;32;20074;-64
2021/09/01 12:21:51;;;;;;;17.08;7.55;;;28.10;20.30;;;;;;4384121;32;20100;-71
2021/09/01 12:24:34;;;;;;;20.52;8.55;;;28.10;20.30;;;;;;4392820;32;20499;-69
2021/09/01 12:27:08;;;;;;;19.05;9.27;;;28.10;20.40;;;;;;4384374;32;20217;-67
2021/09/01 12:29:43;;;;;;;13.45;7.68;;;28.00;20.40;;;;;;4389027;32;20090;-70
2021/09/01 12:32:16;;;;;;;17.08;7.60;;;28.10;20.40;;;;;;4378531;32;20065;-70
2021/09/01 12:34:47;;;;;;;13.68;7.32;;;28.10;20.30;;;;;;4377185;32;20158;-72
2021/09/01 12:37:21;;;;;;;13.40;6.60;;;28.00;20.40;;;;;;4371553;32;20056;-72
2021/09/01 12:40:09;;;;;;;13.35;7.18;;;28.10;20.10;;;;;;4373484;32;20061;-72
2021/09/01 12:42:39;;;;;;;15.93;7.03;;;28.00;20.30;;;;;;4387178;32;20065;-74
2021/09/01 12:45:17;;;;;;;13.57;6.97;;;28.00;20.40;;;;;;4377726;32;20204;-72
2021/09/01 12:47:57;;;;;;;14.93;7.12;;;27.90;20.50;;;;;;4386599;32;20080;-70
2021/09/01 12:50:31;;;;;;;13.48;7.10;;;27.90;20.70;;;;;;4383896;32;20072;-69